sensor_id;sensor_type;location;lat;lon;timestamp;P1;durP1;ratioP1;P2;durP2;ratioP2
16735;SDS011;17990;49.548;9.730;2022-09-09T00:01:15;3.50;;;1.40;;
16735;SDS011;17990;49.548;9.730;2022-09-09T00:03:57;4.73;;;1.60;;
16735;SDS011;17990;49.548;9.730;2022-09-09T00:06:30;4.90;;;1.57;;
16735;SDS011;17990;49.548;9.730;2022-09-09T00:09:10;4.73;;;1.50;;
16735;SDS011;17990;49.548;9.730;2022-09-09T00:11:43;3.63;;;1.40;;
16735;SDS011;17990;49.548;9.730;2022-09-09T00:14:18;5.17;;;1.23;;
16735;SDS011;17990;49.548;9.730;2022-09-09T00:16:55;3.00;;;1.17;;
16735;SDS011;17990;49.548;9.730;2022-09-09T00:19:31;2.50;;;1.00;;
16735;SDS011;17990;49.548;9.730;2022-09-09T00:22:12;2.93;;;1.20;;
16735;SDS011;17990;49.548;9.730;2022-09-09T00:24:43;7.30;;;1.40;;
16735;SDS011;17990;49.548;9.730;2022-09-09T00:27:15;4.73;;;1.27;;
16735;SDS011;17990;49.548;9.730;2022-09-09T00:29:51;4.30;;;1.30;;
16735;SDS011;17990;49.548;9.730;2022-09-09T00:32:22;4.57;;;1.37;;
16735;SDS011;17990;49.548;9.730;2022-09-09T00:34:55;4.20;;;1.10;;
16735;SDS011;17990;49.548;9.730;2022-09-09T00:37:26;2.93;;;1.10;;
16735;SDS011;17990;49.548;9.730;2022-09-09T00:39:57;4.20;;;1.20;;
16735;SDS011;17990;49.548;9.730;2022-09-09T00:42:31;4.07;;;1.33;;
16735;SDS011;17990;49.548;9.730;2022-09-09T00:45:12;3.57;;;1.17;;
16735;SDS011;17990;49.548;9.730;2022-09-09T00:47:56;6.73;;;1.33;;
16735;SDS011;17990;49.548;9.730;2022-09-09T00:50:39;8.47;;;1.30;;
16735;SDS011;17990;49.548;9.730;2022-09-09T00:53:19;4.03;;;1.50;;
16735;SDS011;17990;49.548;9.730;2022-09-09T00:55:59;2.63;;;1.27;;
16735;SDS011;17990;49.548;9.730;2022-09-09T00:58:38;4.50;;;1.50;;
16735;SDS011;17990;49.548;9.730;2022-09-09T01:01:08;4.53;;;1.87;;
16735;SDS011;17990;49.548;9.730;2022-09-09T01:03:40;2.20;;;1.23;;
16735;SDS011;17990;49.548;9.730;2022-09-09T01:06:17;5.07;;;1.20;;
16735;SDS011;17990;49.548;9.730;2022-09-09T01:08:57;2.97;;;1.10;;
16735;SDS011;17990;49.548;9.730;2022-09-09T01:11:37;4.87;;;1.30;;
16735;SDS011;17990;49.548;9.730;2022-09-09T01:14:27;4.80;;;1.70;;
16735;SDS011;17990;49.548;9.730;2022-09-09T01:17:09;4.80;;;1.50;;
16735;SDS011;17990;49.548;9.730;2022-09-09T01:19:48;3.37;;;1.30;;
16735;SDS011;17990;49.548;9.730;2022-09-09T01:22:26;3.50;;;1.60;;
16735;SDS011;17990;49.548;9.730;2022-09-09T01:27:57;4.20;;;1.40;;
16735;SDS011;17990;49.548;9.730;2022-09-09T01:30:27;3.30;;;1.30;;
16735;SDS011;17990;49.548;9.730;2022-09-09T01:32:55;4.03;;;1.23;;
16735;SDS011;17990;49.548;9.730;2022-09-09T01:35:35;5.27;;;1.37;;
16735;SDS011;17990;49.548;9.730;2022-09-09T01:38:15;3.30;;;1.20;;
16735;SDS011;17990;49.548;9.730;2022-09-09T01:40:44;10.17;;;1.47;;
16735;SDS011;17990;49.548;9.730;2022-09-09T01:43:12;5.27;;;1.17;;
16735;SDS011;17990;49.548;9.730;2022-09-09T01:45:40;3.87;;;1.40;;
16735;SDS011;17990;49.548;9.730;2022-09-09T01:48:08;2.90;;;1.03;;
16735;SDS011;17990;49.548;9.730;2022-09-09T01:50:35;5.47;;;1.53;;
16735;SDS011;17990;49.548;9.730;2022-09-09T01:53:02;3.40;;;1.30;;
16735;SDS011;17990;49.548;9.730;2022-09-09T01:55:31;3.80;;;1.13;;
16735;SDS011;17990;49.548;9.730;2022-09-09T01:58:07;6.17;;;1.20;;
16735;SDS011;17990;49.548;9.730;2022-09-09T02:00:48;1.93;;;1.00;;
16735;SDS011;17990;49.548;9.730;2022-09-09T02:03:27;3.83;;;1.17;;
16735;SDS011;17990;49.548;9.730;2022-09-09T02:05:56;3.63;;;1.33;;
16735;SDS011;17990;49.548;9.730;2022-09-09T02:08:33;3.33;;;1.17;;
16735;SDS011;17990;49.548;9.730;2022-09-09T02:11:09;5.07;;;1.30;;
16735;SDS011;17990;49.548;9.730;2022-09-09T02:13:42;4.90;;;1.30;;
16735;SDS011;17990;49.548;9.730;2022-09-09T02:16:12;3.30;;;1.40;;
16735;SDS011;17990;49.548;9.730;2022-09-09T02:18:44;4.37;;;1.40;;
16735;SDS011;17990;49.548;9.730;2022-09-09T02:21:16;4.13;;;1.50;;
16735;SDS011;17990;49.548;9.730;2022-09-09T02:23:44;3.13;;;1.20;;
16735;SDS011;17990;49.548;9.730;2022-09-09T02:26:17;2.00;;;0.90;;
16735;SDS011;17990;49.548;9.730;2022-09-09T02:28:48;3.40;;;1.33;;
16735;SDS011;17990;49.548;9.730;2022-09-09T02:31:17;2.63;;;1.10;;
16735;SDS011;17990;49.548;9.730;2022-09-09T02:33:50;3.83;;;1.00;;
16735;SDS011;17990;49.548;9.730;2022-09-09T02:36:20;4.13;;;1.00;;
16735;SDS011;17990;49.548;9.730;2022-09-09T02:38:50;4.57;;;1.17;;
16735;SDS011;17990;49.548;9.730;2022-09-09T02:41:19;4.10;;;1.20;;
16735;SDS011;17990;49.548;9.730;2022-09-09T02:43:53;2.10;;;1.30;;
16735;SDS011;17990;49.548;9.730;2022-09-09T02:46:24;3.13;;;1.10;;
16735;SDS011;17990;49.548;9.730;2022-09-09T02:49:06;5.27;;;1.40;;
16735;SDS011;17990;49.548;9.730;2022-09-09T02:51:39;5.27;;;1.20;;
16735;SDS011;17990;49.548;9.730;2022-09-09T02:54:20;3.73;;;1.20;;
16735;SDS011;17990;49.548;9.730;2022-09-09T02:56:55;3.80;;;1.27;;
16735;SDS011;17990;49.548;9.730;2022-09-09T02:59:31;5.40;;;1.53;;
16735;SDS011;17990;49.548;9.730;2022-09-09T03:01:58;3.77;;;1.43;;
16735;SDS011;17990;49.548;9.730;2022-09-09T03:04:26;6.00;;;1.50;;
16735;SDS011;17990;49.548;9.730;2022-09-09T03:06:53;2.23;;;1.00;;
16735;SDS011;17990;49.548;9.730;2022-09-09T03:09:20;6.30;;;1.00;;
16735;SDS011;17990;49.548;9.730;2022-09-09T03:11:47;3.23;;;1.40;;
16735;SDS011;17990;49.548;9.730;2022-09-09T03:14:14;8.47;;;1.77;;
16735;SDS011;17990;49.548;9.730;2022-09-09T03:16:43;4.87;;;1.20;;
16735;SDS011;17990;49.548;9.730;2022-09-09T03:19:11;2.03;;;1.10;;
16735;SDS011;17990;49.548;9.730;2022-09-09T03:21:38;3.33;;;1.13;;
16735;SDS011;17990;49.548;9.730;2022-09-09T03:24:05;3.63;;;0.90;;
16735;SDS011;17990;49.548;9.730;2022-09-09T03:26:32;4.43;;;1.10;;
16735;SDS011;17990;49.548;9.730;2022-09-09T03:28:59;2.50;;;1.10;;
16735;SDS011;17990;49.548;9.730;2022-09-09T03:31:26;4.83;;;1.30;;
16735;SDS011;17990;49.548;9.730;2022-09-09T03:33:56;3.40;;;1.17;;
16735;SDS011;17990;49.548;9.730;2022-09-09T03:36:24;5.87;;;1.10;;
16735;SDS011;17990;49.548;9.730;2022-09-09T03:38:53;2.80;;;1.10;;
16735;SDS011;17990;49.548;9.730;2022-09-09T03:41:20;3.17;;;1.40;;
16735;SDS011;17990;49.548;9.730;2022-09-09T03:43:48;3.53;;;1.53;;
16735;SDS011;17990;49.548;9.730;2022-09-09T03:46:15;3.17;;;1.27;;
16735;SDS011;17990;49.548;9.730;2022-09-09T03:48:43;4.47;;;1.40;;
16735;SDS011;17990;49.548;9.730;2022-09-09T03:51:11;2.17;;;1.17;;
16735;SDS011;17990;49.548;9.730;2022-09-09T03:53:38;5.33;;;1.73;;
16735;SDS011;17990;49.548;9.730;2022-09-09T03:56:05;2.33;;;1.33;;
16735;SDS011;17990;49.548;9.730;2022-09-09T03:58:33;3.13;;;1.10;;
16735;SDS011;17990;49.548;9.730;2022-09-09T04:01:01;13.70;;;5.60;;
16735;SDS011;17990;49.548;9.730;2022-09-09T04:03:31;25.37;;;9.87;;
16735;SDS011;17990;49.548;9.730;2022-09-09T04:05:59;17.63;;;8.07;;
16735;SDS011;17990;49.548;9.730;2022-09-09T04:08:29;9.57;;;3.37;;
16735;SDS011;17990;49.548;9.730;2022-09-09T04:10:57;5.03;;;2.00;;
16735;SDS011;17990;49.548;9.730;2022-09-09T04:13:26;5.00;;;1.70;;
16735;SDS011;17990;49.548;9.730;2022-09-09T04:15:54;4.33;;;1.50;;
16735;SDS011;17990;49.548;9.730;2022-09-09T04:18:23;4.23;;;1.27;;
16735;SDS011;17990;49.548;9.730;2022-09-09T04:20:53;2.30;;;1.40;;
16735;SDS011;17990;49.548;9.730;2022-09-09T04:23:22;4.43;;;1.80;;
16735;SDS011;17990;49.548;9.730;2022-09-09T04:25:52;6.03;;;1.40;;
16735;SDS011;17990;49.548;9.730;2022-09-09T04:28:21;3.53;;;1.63;;
16735;SDS011;17990;49.548;9.730;2022-09-09T04:30:51;3.73;;;1.47;;
16735;SDS011;17990;49.548;9.730;2022-09-09T04:33:18;2.53;;;1.20;;
16735;SDS011;17990;49.548;9.730;2022-09-09T04:35:46;4.27;;;1.40;;
16735;SDS011;17990;49.548;9.730;2022-09-09T04:38:15;2.63;;;1.40;;
16735;SDS011;17990;49.548;9.730;2022-09-09T04:40:43;5.07;;;1.20;;
16735;SDS011;17990;49.548;9.730;2022-09-09T04:43:14;4.00;;;1.60;;
16735;SDS011;17990;49.548;9.730;2022-09-09T04:45:41;6.50;;;1.30;;
16735;SDS011;17990;49.548;9.730;2022-09-09T04:48:09;5.27;;;1.40;;
16735;SDS011;17990;49.548;9.730;2022-09-09T04:50:35;6.60;;;1.47;;
16735;SDS011;17990;49.548;9.730;2022-09-09T04:53:03;4.23;;;1.63;;
16735;SDS011;17990;49.548;9.730;2022-09-09T04:55:30;5.17;;;1.70;;
16735;SDS011;17990;49.548;9.730;2022-09-09T04:58:02;4.77;;;1.67;;
16735;SDS011;17990;49.548;9.730;2022-09-09T05:00:32;9.97;;;1.90;;
16735;SDS011;17990;49.548;9.730;2022-09-09T05:03:01;4.37;;;1.70;;
16735;SDS011;17990;49.548;9.730;2022-09-09T05:05:29;4.93;;;1.47;;
16735;SDS011;17990;49.548;9.730;2022-09-09T05:08:00;2.70;;;1.23;;
16735;SDS011;17990;49.548;9.730;2022-09-09T05:10:28;3.77;;;1.20;;
16735;SDS011;17990;49.548;9.730;2022-09-09T05:12:55;3.63;;;1.23;;
16735;SDS011;17990;49.548;9.730;2022-09-09T05:15:22;6.53;;;1.30;;
16735;SDS011;17990;49.548;9.730;2022-09-09T05:17:50;5.13;;;1.57;;
16735;SDS011;17990;49.548;9.730;2022-09-09T05:20:18;3.00;;;1.13;;
16735;SDS011;17990;49.548;9.730;2022-09-09T05:22:45;5.17;;;1.40;;
16735;SDS011;17990;49.548;9.730;2022-09-09T05:25:12;5.13;;;1.50;;
16735;SDS011;17990;49.548;9.730;2022-09-09T05:27:39;4.67;;;1.37;;
16735;SDS011;17990;49.548;9.730;2022-09-09T05:30:06;4.03;;;1.20;;
16735;SDS011;17990;49.548;9.730;2022-09-09T05:32:35;5.07;;;1.20;;
16735;SDS011;17990;49.548;9.730;2022-09-09T05:35:03;3.70;;;1.33;;
16735;SDS011;17990;49.548;9.730;2022-09-09T05:37:31;3.53;;;1.27;;
16735;SDS011;17990;49.548;9.730;2022-09-09T05:39:57;5.03;;;1.20;;
16735;SDS011;17990;49.548;9.730;2022-09-09T05:42:29;5.90;;;1.30;;
16735;SDS011;17990;49.548;9.730;2022-09-09T05:44:56;3.00;;;0.83;;
16735;SDS011;17990;49.548;9.730;2022-09-09T05:47:23;3.53;;;1.10;;
16735;SDS011;17990;49.548;9.730;2022-09-09T05:49:52;4.33;;;1.03;;
16735;SDS011;17990;49.548;9.730;2022-09-09T05:52:21;4.77;;;1.10;;
16735;SDS011;17990;49.548;9.730;2022-09-09T05:54:48;7.23;;;1.10;;
16735;SDS011;17990;49.548;9.730;2022-09-09T05:57:15;4.40;;;1.17;;
16735;SDS011;17990;49.548;9.730;2022-09-09T05:59:44;13.60;;;1.60;;
16735;SDS011;17990;49.548;9.730;2022-09-09T06:02:11;2.87;;;1.07;;
16735;SDS011;17990;49.548;9.730;2022-09-09T06:04:38;6.13;;;1.20;;
16735;SDS011;17990;49.548;9.730;2022-09-09T06:07:05;3.90;;;1.00;;
16735;SDS011;17990;49.548;9.730;2022-09-09T06:09:33;2.10;;;1.03;;
16735;SDS011;17990;49.548;9.730;2022-09-09T06:12:00;4.13;;;1.00;;
16735;SDS011;17990;49.548;9.730;2022-09-09T06:14:28;3.60;;;1.10;;
16735;SDS011;17990;49.548;9.730;2022-09-09T06:16:55;4.43;;;1.00;;
16735;SDS011;17990;49.548;9.730;2022-09-09T06:19:22;3.03;;;0.83;;
16735;SDS011;17990;49.548;9.730;2022-09-09T06:21:51;3.10;;;0.90;;
16735;SDS011;17990;49.548;9.730;2022-09-09T06:24:19;3.33;;;0.90;;
16735;SDS011;17990;49.548;9.730;2022-09-09T06:26:48;2.17;;;0.83;;
16735;SDS011;17990;49.548;9.730;2022-09-09T06:29:15;2.00;;;0.80;;
16735;SDS011;17990;49.548;9.730;2022-09-09T06:31:42;4.77;;;0.80;;
16735;SDS011;17990;49.548;9.730;2022-09-09T06:34:09;4.10;;;1.00;;
16735;SDS011;17990;49.548;9.730;2022-09-09T06:36:36;5.03;;;1.10;;
16735;SDS011;17990;49.548;9.730;2022-09-09T06:39:04;6.33;;;1.10;;
16735;SDS011;17990;49.548;9.730;2022-09-09T06:41:33;6.20;;;1.27;;
16735;SDS011;17990;49.548;9.730;2022-09-09T06:44:02;3.13;;;0.97;;
16735;SDS011;17990;49.548;9.730;2022-09-09T06:46:30;3.33;;;0.90;;
16735;SDS011;17990;49.548;9.730;2022-09-09T06:48:58;3.13;;;0.83;;
16735;SDS011;17990;49.548;9.730;2022-09-09T06:51:26;4.00;;;0.83;;
16735;SDS011;17990;49.548;9.730;2022-09-09T06:53:55;3.90;;;1.00;;
16735;SDS011;17990;49.548;9.730;2022-09-09T06:56:24;5.00;;;1.50;;
16735;SDS011;17990;49.548;9.730;2022-09-09T06:58:54;2.47;;;1.00;;
16735;SDS011;17990;49.548;9.730;2022-09-09T07:01:25;6.00;;;1.03;;
16735;SDS011;17990;49.548;9.730;2022-09-09T07:03:54;3.17;;;1.00;;
16735;SDS011;17990;49.548;9.730;2022-09-09T07:06:24;2.38;;;1.30;;
16735;SDS011;17990;49.548;9.730;2022-09-09T07:08:53;2.00;;;0.90;;
16735;SDS011;17990;49.548;9.730;2022-09-09T07:11:23;2.28;;;0.70;;
16735;SDS011;17990;49.548;9.730;2022-09-09T07:13:52;4.55;;;0.88;;
16735;SDS011;17990;49.548;9.730;2022-09-09T07:16:20;4.63;;;0.90;;
16735;SDS011;17990;49.548;9.730;2022-09-09T07:18:51;3.53;;;1.02;;
16735;SDS011;17990;49.548;9.730;2022-09-09T07:21:22;2.85;;;0.82;;
16735;SDS011;17990;49.548;9.730;2022-09-09T07:23:51;1.88;;;0.80;;
16735;SDS011;17990;49.548;9.730;2022-09-09T07:26:19;2.05;;;0.77;;
16735;SDS011;17990;49.548;9.730;2022-09-09T07:28:48;2.35;;;0.90;;
16735;SDS011;17990;49.548;9.730;2022-09-09T07:31:16;5.10;;;1.00;;
16735;SDS011;17990;49.548;9.730;2022-09-09T07:33:45;1.65;;;0.60;;
16735;SDS011;17990;49.548;9.730;2022-09-09T07:36:15;4.38;;;1.10;;
16735;SDS011;17990;49.548;9.730;2022-09-09T07:38:47;2.17;;;0.90;;
16735;SDS011;17990;49.548;9.730;2022-09-09T07:41:19;5.32;;;0.93;;
16735;SDS011;17990;49.548;9.730;2022-09-09T07:43:49;6.75;;;0.90;;
16735;SDS011;17990;49.548;9.730;2022-09-09T07:46:17;2.45;;;0.60;;
16735;SDS011;17990;49.548;9.730;2022-09-09T07:48:47;1.90;;;0.65;;
16735;SDS011;17990;49.548;9.730;2022-09-09T07:51:18;2.45;;;0.80;;
16735;SDS011;17990;49.548;9.730;2022-09-09T07:53:51;3.58;;;0.90;;
16735;SDS011;17990;49.548;9.730;2022-09-09T07:56:20;3.92;;;0.80;;
16735;SDS011;17990;49.548;9.730;2022-09-09T07:58:47;3.20;;;0.80;;
16735;SDS011;17990;49.548;9.730;2022-09-09T08:01:16;1.63;;;0.60;;
16735;SDS011;17990;49.548;9.730;2022-09-09T08:03:46;2.50;;;0.60;;
16735;SDS011;17990;49.548;9.730;2022-09-09T08:06:20;4.57;;;0.85;;
16735;SDS011;17990;49.548;9.730;2022-09-09T08:08:50;3.00;;;0.73;;
16735;SDS011;17990;49.548;9.730;2022-09-09T08:11:17;2.47;;;0.93;;
16735;SDS011;17990;49.548;9.730;2022-09-09T08:13:45;2.85;;;0.80;;
16735;SDS011;17990;49.548;9.730;2022-09-09T08:16:13;4.72;;;0.90;;
16735;SDS011;17990;49.548;9.730;2022-09-09T08:18:42;5.15;;;0.77;;
16735;SDS011;17990;49.548;9.730;2022-09-09T08:21:10;7.72;;;1.17;;
16735;SDS011;17990;49.548;9.730;2022-09-09T08:23:41;4.03;;;0.93;;
16735;SDS011;17990;49.548;9.730;2022-09-09T08:26:11;5.50;;;1.15;;
16735;SDS011;17990;49.548;9.730;2022-09-09T08:28:40;3.97;;;0.98;;
16735;SDS011;17990;49.548;9.730;2022-09-09T08:31:08;4.85;;;1.00;;
16735;SDS011;17990;49.548;9.730;2022-09-09T08:33:37;3.40;;;0.98;;
16735;SDS011;17990;49.548;9.730;2022-09-09T08:36:06;4.75;;;1.20;;
16735;SDS011;17990;49.548;9.730;2022-09-09T08:38:36;5.03;;;1.42;;
16735;SDS011;17990;49.548;9.730;2022-09-09T08:41:09;8.18;;;1.42;;
16735;SDS011;17990;49.548;9.730;2022-09-09T08:44:00;5.85;;;1.02;;
16735;SDS011;17990;49.548;9.730;2022-09-09T08:46:34;3.17;;;0.90;;
16735;SDS011;17990;49.548;9.730;2022-09-09T08:49:15;5.82;;;1.15;;
16735;SDS011;17990;49.548;9.730;2022-09-09T08:51:58;8.25;;;1.10;;
16735;SDS011;17990;49.548;9.730;2022-09-09T08:54:26;5.55;;;1.15;;
16735;SDS011;17990;49.548;9.730;2022-09-09T08:57:01;5.28;;;0.90;;
16735;SDS011;17990;49.548;9.730;2022-09-09T08:59:27;4.50;;;1.20;;
16735;SDS011;17990;49.548;9.730;2022-09-09T09:01:57;7.00;;;1.20;;
16735;SDS011;17990;49.548;9.730;2022-09-09T09:04:33;5.35;;;1.10;;
16735;SDS011;17990;49.548;9.730;2022-09-09T09:07:13;6.47;;;1.40;;
16735;SDS011;17990;49.548;9.730;2022-09-09T09:09:57;4.80;;;1.00;;
16735;SDS011;17990;49.548;9.730;2022-09-09T09:12:32;3.53;;;0.85;;
16735;SDS011;17990;49.548;9.730;2022-09-09T09:15:08;6.57;;;1.30;;
16735;SDS011;17990;49.548;9.730;2022-09-09T09:17:48;11.18;;;1.95;;
16735;SDS011;17990;49.548;9.730;2022-09-09T09:20:17;4.45;;;0.98;;
16735;SDS011;17990;49.548;9.730;2022-09-09T09:22:51;5.75;;;1.10;;
16735;SDS011;17990;49.548;9.730;2022-09-09T09:25:20;7.07;;;1.90;;
16735;SDS011;17990;49.548;9.730;2022-09-09T09:27:51;6.50;;;1.50;;
16735;SDS011;17990;49.548;9.730;2022-09-09T09:30:26;4.70;;;0.98;;
16735;SDS011;17990;49.548;9.730;2022-09-09T09:32:59;6.10;;;1.13;;
16735;SDS011;17990;49.548;9.730;2022-09-09T09:35:28;4.82;;;1.35;;
16735;SDS011;17990;49.548;9.730;2022-09-09T09:37:55;7.35;;;1.52;;
16735;SDS011;17990;49.548;9.730;2022-09-09T09:40:22;5.40;;;1.00;;
16735;SDS011;17990;49.548;9.730;2022-09-09T09:42:53;4.88;;;1.10;;
16735;SDS011;17990;49.548;9.730;2022-09-09T09:45:27;6.00;;;1.25;;
16735;SDS011;17990;49.548;9.730;2022-09-09T09:47:59;3.85;;;1.27;;
16735;SDS011;17990;49.548;9.730;2022-09-09T09:50:28;4.28;;;0.98;;
16735;SDS011;17990;49.548;9.730;2022-09-09T09:52:56;2.17;;;0.90;;
16735;SDS011;17990;49.548;9.730;2022-09-09T09:55:26;4.60;;;0.95;;
16735;SDS011;17990;49.548;9.730;2022-09-09T09:58:02;3.58;;;0.98;;
16735;SDS011;17990;49.548;9.730;2022-09-09T10:00:31;5.43;;;1.30;;
16735;SDS011;17990;49.548;9.730;2022-09-09T10:03:00;4.88;;;1.00;;
16735;SDS011;17990;49.548;9.730;2022-09-09T10:05:28;4.18;;;0.90;;
16735;SDS011;17990;49.548;9.730;2022-09-09T10:08:03;4.78;;;1.10;;
16735;SDS011;17990;49.548;9.730;2022-09-09T10:10:35;4.47;;;1.00;;
16735;SDS011;17990;49.548;9.730;2022-09-09T10:13:15;5.68;;;0.90;;
16735;SDS011;17990;49.548;9.730;2022-09-09T10:15:51;6.05;;;0.90;;
16735;SDS011;17990;49.548;9.730;2022-09-09T10:18:36;2.63;;;1.10;;
16735;SDS011;17990;49.548;9.730;2022-09-09T10:21:16;3.70;;;0.88;;
16735;SDS011;17990;49.548;9.730;2022-09-09T10:24:08;3.88;;;1.10;;
16735;SDS011;17990;49.548;9.730;2022-09-09T10:26:58;11.68;;;1.65;;
16735;SDS011;17990;49.548;9.730;2022-09-09T10:29:34;5.18;;;0.80;;
16735;SDS011;17990;49.548;9.730;2022-09-09T10:35:14;4.55;;;1.17;;
16735;SDS011;17990;49.548;9.730;2022-09-09T10:37:58;2.80;;;0.60;;
16735;SDS011;17990;49.548;9.730;2022-09-09T10:40:40;3.03;;;0.82;;
16735;SDS011;17990;49.548;9.730;2022-09-09T10:43:18;3.17;;;0.85;;
16735;SDS011;17990;49.548;9.730;2022-09-09T10:46:03;3.97;;;1.20;;
16735;SDS011;17990;49.548;9.730;2022-09-09T10:48:45;1.23;;;0.70;;
16735;SDS011;17990;49.548;9.730;2022-09-09T10:51:28;5.07;;;0.70;;
16735;SDS011;17990;49.548;9.730;2022-09-09T10:54:10;4.88;;;0.70;;
16735;SDS011;17990;49.548;9.730;2022-09-09T10:56:52;2.30;;;0.70;;
16735;SDS011;17990;49.548;9.730;2022-09-09T10:59:25;7.25;;;1.13;;
16735;SDS011;17990;49.548;9.730;2022-09-09T11:01:59;2.45;;;1.00;;
16735;SDS011;17990;49.548;9.730;2022-09-09T11:04:33;7.93;;;1.17;;
16735;SDS011;17990;49.548;9.730;2022-09-09T11:07:07;3.80;;;0.95;;
16735;SDS011;17990;49.548;9.730;2022-09-09T11:09:39;4.57;;;0.95;;
16735;SDS011;17990;49.548;9.730;2022-09-09T11:12:10;2.70;;;0.80;;
16735;SDS011;17990;49.548;9.730;2022-09-09T11:14:45;5.85;;;1.02;;
16735;SDS011;17990;49.548;9.730;2022-09-09T11:17:19;3.83;;;1.00;;
16735;SDS011;17990;49.548;9.730;2022-09-09T11:19:50;3.38;;;0.73;;
16735;SDS011;17990;49.548;9.730;2022-09-09T11:22:20;1.88;;;0.80;;
16735;SDS011;17990;49.548;9.730;2022-09-09T11:24:54;1.90;;;0.90;;
16735;SDS011;17990;49.548;9.730;2022-09-09T11:27:27;5.85;;;0.90;;
16735;SDS011;17990;49.548;9.730;2022-09-09T11:30:05;4.70;;;0.73;;
16735;SDS011;17990;49.548;9.730;2022-09-09T11:32:51;6.53;;;1.00;;
16735;SDS011;17990;49.548;9.730;2022-09-09T11:35:34;7.38;;;1.00;;
16735;SDS011;17990;49.548;9.730;2022-09-09T11:38:15;3.33;;;0.80;;
16735;SDS011;17990;49.548;9.730;2022-09-09T11:40:46;3.25;;;0.75;;
16735;SDS011;17990;49.548;9.730;2022-09-09T11:43:14;3.05;;;0.63;;
16735;SDS011;17990;49.548;9.730;2022-09-09T11:45:50;2.92;;;0.65;;
16735;SDS011;17990;49.548;9.730;2022-09-09T11:48:25;5.93;;;0.80;;
16735;SDS011;17990;49.548;9.730;2022-09-09T11:51:00;3.92;;;0.82;;
16735;SDS011;17990;49.548;9.730;2022-09-09T11:53:32;2.47;;;0.85;;
16735;SDS011;17990;49.548;9.730;2022-09-09T11:56:08;2.75;;;1.10;;
16735;SDS011;17990;49.548;9.730;2022-09-09T11:58:41;5.75;;;2.15;;
16735;SDS011;17990;49.548;9.730;2022-09-09T12:07:05;6.75;;;1.02;;
16735;SDS011;17990;49.548;9.730;2022-09-09T12:09:56;5.10;;;1.00;;
16735;SDS011;17990;49.548;9.730;2022-09-09T12:12:30;3.33;;;0.50;;
16735;SDS011;17990;49.548;9.730;2022-09-09T12:17:48;1.90;;;0.73;;
16735;SDS011;17990;49.548;9.730;2022-09-09T12:20:19;3.83;;;0.88;;
16735;SDS011;17990;49.548;9.730;2022-09-09T12:29:05;3.00;;;0.90;;
16735;SDS011;17990;49.548;9.730;2022-09-09T12:31:46;5.32;;;0.70;;
16735;SDS011;17990;49.548;9.730;2022-09-09T12:34:23;2.95;;;0.50;;
16735;SDS011;17990;49.548;9.730;2022-09-09T12:37:04;5.57;;;0.93;;
16735;SDS011;17990;49.548;9.730;2022-09-09T12:39:43;2.28;;;0.70;;
16735;SDS011;17990;49.548;9.730;2022-09-09T12:42:16;2.38;;;0.77;;
16735;SDS011;17990;49.548;9.730;2022-09-09T12:44:51;2.30;;;0.88;;
16735;SDS011;17990;49.548;9.730;2022-09-09T12:47:19;2.88;;;0.85;;
16735;SDS011;17990;49.548;9.730;2022-09-09T12:49:52;1.95;;;0.60;;
16735;SDS011;17990;49.548;9.730;2022-09-09T12:52:24;4.07;;;0.70;;
16735;SDS011;17990;49.548;9.730;2022-09-09T12:54:56;1.65;;;0.70;;
16735;SDS011;17990;49.548;9.730;2022-09-09T12:57:25;2.45;;;0.90;;
16735;SDS011;17990;49.548;9.730;2022-09-09T13:00:06;2.13;;;0.65;;
16735;SDS011;17990;49.548;9.730;2022-09-09T13:02:50;3.65;;;0.47;;
16735;SDS011;17990;49.548;9.730;2022-09-09T13:05:20;1.48;;;0.50;;
16735;SDS011;17990;49.548;9.730;2022-09-09T13:07:51;3.15;;;0.88;;
16735;SDS011;17990;49.548;9.730;2022-09-09T13:10:27;3.92;;;0.55;;
16735;SDS011;17990;49.548;9.730;2022-09-09T13:12:58;2.58;;;0.80;;
16735;SDS011;17990;49.548;9.730;2022-09-09T13:15:26;3.30;;;0.80;;
16735;SDS011;17990;49.548;9.730;2022-09-09T13:17:58;2.38;;;0.50;;
16735;SDS011;17990;49.548;9.730;2022-09-09T13:20:33;2.60;;;0.63;;
16735;SDS011;17990;49.548;9.730;2022-09-09T13:23:01;1.20;;;0.40;;
16735;SDS011;17990;49.548;9.730;2022-09-09T13:25:28;2.53;;;0.88;;
16735;SDS011;17990;49.548;9.730;2022-09-09T13:27:56;3.17;;;0.60;;
16735;SDS011;17990;49.548;9.730;2022-09-09T13:30:26;1.83;;;0.50;;
16735;SDS011;17990;49.548;9.730;2022-09-09T13:32:59;1.42;;;0.50;;
16735;SDS011;17990;49.548;9.730;2022-09-09T13:35:49;3.28;;;0.60;;
16735;SDS011;17990;49.548;9.730;2022-09-09T13:38:21;2.85;;;0.60;;
16735;SDS011;17990;49.548;9.730;2022-09-09T13:40:53;2.83;;;0.65;;
16735;SDS011;17990;49.548;9.730;2022-09-09T13:43:23;2.20;;;0.45;;
16735;SDS011;17990;49.548;9.730;2022-09-09T13:45:55;4.72;;;0.60;;
16735;SDS011;17990;49.548;9.730;2022-09-09T13:48:24;1.52;;;0.68;;
16735;SDS011;17990;49.548;9.730;2022-09-09T13:50:59;2.85;;;0.82;;
16735;SDS011;17990;49.548;9.730;2022-09-09T13:53:31;2.05;;;0.90;;
16735;SDS011;17990;49.548;9.730;2022-09-09T13:55:58;2.92;;;0.70;;
16735;SDS011;17990;49.548;9.730;2022-09-09T13:58:26;2.47;;;0.77;;
16735;SDS011;17990;49.548;9.730;2022-09-09T14:00:53;3.75;;;0.80;;
16735;SDS011;17990;49.548;9.730;2022-09-09T14:03:20;2.75;;;0.80;;
16735;SDS011;17990;49.548;9.730;2022-09-09T14:05:47;3.60;;;0.73;;
16735;SDS011;17990;49.548;9.730;2022-09-09T14:08:16;4.45;;;1.25;;
16735;SDS011;17990;49.548;9.730;2022-09-09T14:10:51;3.50;;;0.98;;
16735;SDS011;17990;49.548;9.730;2022-09-09T14:13:20;2.13;;;0.80;;
16735;SDS011;17990;49.548;9.730;2022-09-09T14:15:47;1.33;;;0.57;;
16735;SDS011;17990;49.548;9.730;2022-09-09T14:18:15;2.38;;;0.90;;
16735;SDS011;17990;49.548;9.730;2022-09-09T14:20:43;2.38;;;1.10;;
16735;SDS011;17990;49.548;9.730;2022-09-09T14:23:10;2.17;;;1.00;;
16735;SDS011;17990;49.548;9.730;2022-09-09T14:25:39;4.07;;;0.70;;
16735;SDS011;17990;49.548;9.730;2022-09-09T14:28:10;2.78;;;0.60;;
16735;SDS011;17990;49.548;9.730;2022-09-09T14:30:38;5.00;;;2.65;;
16735;SDS011;17990;49.548;9.730;2022-09-09T14:33:06;2.20;;;0.93;;
16735;SDS011;17990;49.548;9.730;2022-09-09T14:35:33;11.80;;;1.92;;
16735;SDS011;17990;49.548;9.730;2022-09-09T14:38:01;4.63;;;1.00;;
16735;SDS011;17990;49.548;9.730;2022-09-09T14:40:28;7.25;;;1.45;;
16735;SDS011;17990;49.548;9.730;2022-09-09T14:42:55;3.88;;;0.70;;
16735;SDS011;17990;49.548;9.730;2022-09-09T14:45:24;2.80;;;1.05;;
16735;SDS011;17990;49.548;9.730;2022-09-09T14:47:52;3.40;;;0.73;;
16735;SDS011;17990;49.548;9.730;2022-09-09T14:50:19;5.47;;;0.88;;
16735;SDS011;17990;49.548;9.730;2022-09-09T14:52:47;1.98;;;0.80;;
16735;SDS011;17990;49.548;9.730;2022-09-09T14:55:15;5.28;;;2.22;;
16735;SDS011;17990;49.548;9.730;2022-09-09T14:57:42;4.30;;;0.85;;
16735;SDS011;17990;49.548;9.730;2022-09-09T15:00:10;3.95;;;1.00;;
16735;SDS011;17990;49.548;9.730;2022-09-09T15:02:39;5.13;;;1.00;;
16735;SDS011;17990;49.548;9.730;2022-09-09T15:05:06;2.95;;;0.85;;
16735;SDS011;17990;49.548;9.730;2022-09-09T15:07:34;2.10;;;0.63;;
16735;SDS011;17990;49.548;9.730;2022-09-09T15:10:01;3.65;;;0.90;;
16735;SDS011;17990;49.548;9.730;2022-09-09T15:12:29;1.63;;;0.50;;
16735;SDS011;17990;49.548;9.730;2022-09-09T15:14:56;5.10;;;1.33;;
16735;SDS011;17990;49.548;9.730;2022-09-09T15:17:23;4.82;;;1.00;;
16735;SDS011;17990;49.548;9.730;2022-09-09T15:19:53;3.15;;;0.90;;
16735;SDS011;17990;49.548;9.730;2022-09-09T15:22:20;3.78;;;0.70;;
16735;SDS011;17990;49.548;9.730;2022-09-09T15:24:49;1.90;;;0.50;;
16735;SDS011;17990;49.548;9.730;2022-09-09T15:27:16;4.00;;;1.05;;
16735;SDS011;17990;49.548;9.730;2022-09-09T15:29:46;5.65;;;1.15;;
16735;SDS011;17990;49.548;9.730;2022-09-09T15:32:19;1.58;;;0.50;;
16735;SDS011;17990;49.548;9.730;2022-09-09T15:34:46;15.20;;;2.10;;